sensor_id;sensor_type;location;lat;lon;timestamp;P1;durP1;ratioP1;P2;durP2;ratioP2
84144;SDS011;74264;48.988;12.040;2024-01-30T00:02:06;21.75;;;11.65;;
84144;SDS011;74264;48.988;12.040;2024-01-30T00:04:31;19.95;;;10.48;;
84144;SDS011;74264;48.988;12.040;2024-01-30T00:06:57;20.90;;;10.75;;
84144;SDS011;74264;48.988;12.040;2024-01-30T00:09:23;18.05;;;11.35;;
84144;SDS011;74264;48.988;12.040;2024-01-30T00:11:48;24.08;;;11.25;;
84144;SDS011;74264;48.988;12.040;2024-01-30T00:14:14;31.30;;;13.23;;
84144;SDS011;74264;48.988;12.040;2024-01-30T00:16:39;36.42;;;15.20;;
84144;SDS011;74264;48.988;12.040;2024-01-30T00:19:05;30.38;;;14.10;;
84144;SDS011;74264;48.988;12.040;2024-01-30T00:21:30;27.65;;;13.93;;
84144;SDS011;74264;48.988;12.040;2024-01-30T00:23:56;31.05;;;14.90;;
84144;SDS011;74264;48.988;12.040;2024-01-30T00:26:21;26.77;;;13.48;;
84144;SDS011;74264;48.988;12.040;2024-01-30T00:28:47;26.63;;;14.20;;
84144;SDS011;74264;48.988;12.040;2024-01-30T00:31:13;26.92;;;13.18;;
84144;SDS011;74264;48.988;12.040;2024-01-30T00:33:38;25.35;;;11.80;;
84144;SDS011;74264;48.988;12.040;2024-01-30T00:36:08;25.65;;;11.55;;
84144;SDS011;74264;48.988;12.040;2024-01-30T00:38:35;29.80;;;12.60;;
84144;SDS011;74264;48.988;12.040;2024-01-30T00:41:01;18.48;;;11.55;;
84144;SDS011;74264;48.988;12.040;2024-01-30T00:43:30;21.23;;;11.45;;
84144;SDS011;74264;48.988;12.040;2024-01-30T00:45:56;25.70;;;11.60;;
84144;SDS011;74264;48.988;12.040;2024-01-30T00:48:23;26.52;;;12.15;;
84144;SDS011;74264;48.988;12.040;2024-01-30T00:50:49;25.92;;;14.25;;
84144;SDS011;74264;48.988;12.040;2024-01-30T00:53:15;28.83;;;15.60;;
84144;SDS011;74264;48.988;12.040;2024-01-30T00:55:40;33.17;;;14.20;;
84144;SDS011;74264;48.988;12.040;2024-01-30T00:58:06;26.30;;;14.85;;
84144;SDS011;74264;48.988;12.040;2024-01-30T01:00:32;25.00;;;13.82;;
84144;SDS011;74264;48.988;12.040;2024-01-30T01:02:58;31.45;;;13.80;;
84144;SDS011;74264;48.988;12.040;2024-01-30T01:05:24;27.17;;;12.40;;
84144;SDS011;74264;48.988;12.040;2024-01-30T01:07:50;32.28;;;14.07;;
84144;SDS011;74264;48.988;12.040;2024-01-30T01:10:16;25.25;;;13.02;;
84144;SDS011;74264;48.988;12.040;2024-01-30T01:12:42;21.23;;;11.63;;
84144;SDS011;74264;48.988;12.040;2024-01-30T01:15:08;22.27;;;11.25;;
84144;SDS011;74264;48.988;12.040;2024-01-30T01:17:38;19.65;;;11.48;;
84144;SDS011;74264;48.988;12.040;2024-01-30T01:20:05;21.98;;;12.15;;
84144;SDS011;74264;48.988;12.040;2024-01-30T01:22:31;29.13;;;13.45;;
84144;SDS011;74264;48.988;12.040;2024-01-30T01:24:58;25.08;;;14.30;;
84144;SDS011;74264;48.988;12.040;2024-01-30T01:27:24;23.23;;;13.05;;
84144;SDS011;74264;48.988;12.040;2024-01-30T01:29:50;24.95;;;12.82;;
84144;SDS011;74264;48.988;12.040;2024-01-30T01:32:16;23.80;;;13.00;;
84144;SDS011;74264;48.988;12.040;2024-01-30T01:34:41;26.70;;;11.98;;
84144;SDS011;74264;48.988;12.040;2024-01-30T01:37:07;24.15;;;11.55;;
84144;SDS011;74264;48.988;12.040;2024-01-30T01:39:33;24.70;;;13.25;;
84144;SDS011;74264;48.988;12.040;2024-01-30T01:41:58;22.48;;;12.50;;
84144;SDS011;74264;48.988;12.040;2024-01-30T01:44:24;21.23;;;12.35;;
84144;SDS011;74264;48.988;12.040;2024-01-30T01:46:50;31.33;;;13.68;;
84144;SDS011;74264;48.988;12.040;2024-01-30T01:49:16;23.70;;;12.48;;
84144;SDS011;74264;48.988;12.040;2024-01-30T01:51:42;35.83;;;13.27;;
84144;SDS011;74264;48.988;12.040;2024-01-30T01:54:10;24.80;;;14.82;;
84144;SDS011;74264;48.988;12.040;2024-01-30T01:56:36;26.95;;;14.23;;
84144;SDS011;74264;48.988;12.040;2024-01-30T01:59:07;30.50;;;15.00;;
84144;SDS011;74264;48.988;12.040;2024-01-30T02:01:34;26.77;;;14.20;;
84144;SDS011;74264;48.988;12.040;2024-01-30T02:04:04;28.92;;;12.98;;
84144;SDS011;74264;48.988;12.040;2024-01-30T02:06:29;24.25;;;12.55;;
84144;SDS011;74264;48.988;12.040;2024-01-30T02:08:56;23.23;;;14.30;;
84144;SDS011;74264;48.988;12.040;2024-01-30T02:11:22;28.55;;;13.27;;
84144;SDS011;74264;48.988;12.040;2024-01-30T02:13:48;26.95;;;12.60;;
84144;SDS011;74264;48.988;12.040;2024-01-30T02:16:14;27.27;;;13.40;;
84144;SDS011;74264;48.988;12.040;2024-01-30T02:18:40;20.65;;;13.23;;
84144;SDS011;74264;48.988;12.040;2024-01-30T02:21:22;28.67;;;12.38;;
84144;SDS011;74264;48.988;12.040;2024-01-30T02:23:48;28.25;;;12.90;;
84144;SDS011;74264;48.988;12.040;2024-01-30T02:26:14;24.80;;;12.27;;
84144;SDS011;74264;48.988;12.040;2024-01-30T02:28:40;29.08;;;12.90;;
84144;SDS011;74264;48.988;12.040;2024-01-30T02:31:05;24.02;;;12.40;;
84144;SDS011;74264;48.988;12.040;2024-01-30T02:33:31;24.75;;;12.40;;
84144;SDS011;74264;48.988;12.040;2024-01-30T02:35:57;24.73;;;11.82;;
84144;SDS011;74264;48.988;12.040;2024-01-30T02:38:22;18.55;;;10.43;;
84144;SDS011;74264;48.988;12.040;2024-01-30T02:40:48;20.50;;;11.55;;
84144;SDS011;74264;48.988;12.040;2024-01-30T02:43:15;27.98;;;12.90;;
84144;SDS011;74264;48.988;12.040;2024-01-30T02:45:41;23.75;;;13.27;;
84144;SDS011;74264;48.988;12.040;2024-01-30T02:48:07;35.85;;;14.10;;
84144;SDS011;74264;48.988;12.040;2024-01-30T02:50:32;30.98;;;14.23;;
84144;SDS011;74264;48.988;12.040;2024-01-30T02:52:58;28.50;;;13.77;;
84144;SDS011;74264;48.988;12.040;2024-01-30T02:55:23;27.95;;;13.82;;
84144;SDS011;74264;48.988;12.040;2024-01-30T02:57:49;25.00;;;14.15;;
84144;SDS011;74264;48.988;12.040;2024-01-30T03:00:14;32.80;;;15.65;;
84144;SDS011;74264;48.988;12.040;2024-01-30T03:02:40;31.30;;;15.20;;
84144;SDS011;74264;48.988;12.040;2024-01-30T03:05:06;28.45;;;14.23;;
84144;SDS011;74264;48.988;12.040;2024-01-30T03:07:33;27.83;;;14.75;;
84144;SDS011;74264;48.988;12.040;2024-01-30T03:09:58;34.55;;;14.10;;
84144;SDS011;74264;48.988;12.040;2024-01-30T03:12:24;28.17;;;15.00;;
84144;SDS011;74264;48.988;12.040;2024-01-30T03:14:50;29.13;;;15.43;;
84144;SDS011;74264;48.988;12.040;2024-01-30T03:17:15;31.52;;;13.80;;
84144;SDS011;74264;48.988;12.040;2024-01-30T03:19:41;36.75;;;14.18;;
84144;SDS011;74264;48.988;12.040;2024-01-30T03:22:07;35.17;;;15.98;;
84144;SDS011;74264;48.988;12.040;2024-01-30T03:24:32;30.60;;;15.40;;
84144;SDS011;74264;48.988;12.040;2024-01-30T03:26:58;35.75;;;15.65;;
84144;SDS011;74264;48.988;12.040;2024-01-30T03:29:24;30.73;;;15.38;;
84144;SDS011;74264;48.988;12.040;2024-01-30T03:31:49;27.45;;;15.02;;
84144;SDS011;74264;48.988;12.040;2024-01-30T03:34:15;23.70;;;13.65;;
84144;SDS011;74264;48.988;12.040;2024-01-30T03:36:40;29.85;;;14.55;;
84144;SDS011;74264;48.988;12.040;2024-01-30T03:39:06;26.25;;;12.88;;
84144;SDS011;74264;48.988;12.040;2024-01-30T03:41:32;21.38;;;12.35;;
84144;SDS011;74264;48.988;12.040;2024-01-30T03:43:57;20.00;;;12.82;;
84144;SDS011;74264;48.988;12.040;2024-01-30T03:46:23;27.00;;;12.82;;
84144;SDS011;74264;48.988;12.040;2024-01-30T03:48:49;26.08;;;14.00;;
84144;SDS011;74264;48.988;12.040;2024-01-30T03:51:15;32.05;;;16.27;;
84144;SDS011;74264;48.988;12.040;2024-01-30T03:53:41;38.20;;;16.50;;
84144;SDS011;74264;48.988;12.040;2024-01-30T03:56:08;32.22;;;16.13;;
84144;SDS011;74264;48.988;12.040;2024-01-30T03:58:34;33.88;;;16.42;;
84144;SDS011;74264;48.988;12.040;2024-01-30T04:00:59;33.67;;;15.63;;
84144;SDS011;74264;48.988;12.040;2024-01-30T04:03:25;29.45;;;16.05;;
84144;SDS011;74264;48.988;12.040;2024-01-30T04:05:51;31.27;;;15.82;;
84144;SDS011;74264;48.988;12.040;2024-01-30T04:08:18;38.97;;;15.10;;
84144;SDS011;74264;48.988;12.040;2024-01-30T04:10:43;38.97;;;16.13;;
84144;SDS011;74264;48.988;12.040;2024-01-30T04:13:09;26.60;;;14.70;;
84144;SDS011;74264;48.988;12.040;2024-01-30T04:15:35;34.05;;;14.57;;
84144;SDS011;74264;48.988;12.040;2024-01-30T04:18:01;29.52;;;14.88;;
84144;SDS011;74264;48.988;12.040;2024-01-30T04:20:26;31.17;;;13.20;;
84144;SDS011;74264;48.988;12.040;2024-01-30T04:22:52;27.45;;;15.30;;
84144;SDS011;74264;48.988;12.040;2024-01-30T04:25:18;30.55;;;16.00;;
84144;SDS011;74264;48.988;12.040;2024-01-30T04:27:43;41.15;;;16.55;;
84144;SDS011;74264;48.988;12.040;2024-01-30T04:30:09;31.23;;;15.18;;
84144;SDS011;74264;48.988;12.040;2024-01-30T04:32:35;25.92;;;13.25;;
84144;SDS011;74264;48.988;12.040;2024-01-30T04:35:03;28.42;;;13.10;;
84144;SDS011;74264;48.988;12.040;2024-01-30T04:37:29;29.92;;;13.20;;
84144;SDS011;74264;48.988;12.040;2024-01-30T04:39:54;23.92;;;12.30;;
84144;SDS011;74264;48.988;12.040;2024-01-30T04:42:20;24.13;;;13.25;;
84144;SDS011;74264;48.988;12.040;2024-01-30T04:44:46;24.25;;;12.95;;
84144;SDS011;74264;48.988;12.040;2024-01-30T04:47:12;29.55;;;13.50;;
84144;SDS011;74264;48.988;12.040;2024-01-30T04:49:38;23.58;;;12.27;;
84144;SDS011;74264;48.988;12.040;2024-01-30T04:52:05;24.98;;;13.30;;
84144;SDS011;74264;48.988;12.040;2024-01-30T04:54:31;24.75;;;12.98;;
84144;SDS011;74264;48.988;12.040;2024-01-30T04:56:57;28.27;;;13.95;;
84144;SDS011;74264;48.988;12.040;2024-01-30T04:59:23;30.17;;;14.05;;
84144;SDS011;74264;48.988;12.040;2024-01-30T05:01:49;29.27;;;14.45;;
84144;SDS011;74264;48.988;12.040;2024-01-30T05:04:15;27.02;;;13.98;;
84144;SDS011;74264;48.988;12.040;2024-01-30T05:06:40;36.45;;;17.08;;
84144;SDS011;74264;48.988;12.040;2024-01-30T05:09:06;51.88;;;22.17;;
84144;SDS011;74264;48.988;12.040;2024-01-30T05:11:36;67.95;;;26.65;;
84144;SDS011;74264;48.988;12.040;2024-01-30T05:14:03;46.60;;;20.67;;
84144;SDS011;74264;48.988;12.040;2024-01-30T05:16:28;46.13;;;20.70;;
84144;SDS011;74264;48.988;12.040;2024-01-30T05:18:54;53.72;;;20.58;;
84144;SDS011;74264;48.988;12.040;2024-01-30T05:21:19;40.67;;;19.35;;
84144;SDS011;74264;48.988;12.040;2024-01-30T05:23:45;36.83;;;17.33;;
84144;SDS011;74264;48.988;12.040;2024-01-30T05:26:11;40.75;;;20.75;;
84144;SDS011;74264;48.988;12.040;2024-01-30T05:28:36;44.15;;;21.85;;
84144;SDS011;74264;48.988;12.040;2024-01-30T05:31:03;56.53;;;27.20;;
84144;SDS011;74264;48.988;12.040;2024-01-30T05:33:28;43.05;;;20.33;;
84144;SDS011;74264;48.988;12.040;2024-01-30T05:35:54;47.67;;;22.23;;
84144;SDS011;74264;48.988;12.040;2024-01-30T05:38:19;41.80;;;18.42;;
84144;SDS011;74264;48.988;12.040;2024-01-30T05:40:45;38.97;;;17.77;;
84144;SDS011;74264;48.988;12.040;2024-01-30T05:43:11;29.98;;;16.98;;
84144;SDS011;74264;48.988;12.040;2024-01-30T05:45:37;33.28;;;16.70;;
84144;SDS011;74264;48.988;12.040;2024-01-30T05:48:03;37.13;;;14.98;;
84144;SDS011;74264;48.988;12.040;2024-01-30T05:50:29;29.13;;;16.15;;
84144;SDS011;74264;48.988;12.040;2024-01-30T05:52:55;33.83;;;15.70;;
84144;SDS011;74264;48.988;12.040;2024-01-30T05:55:21;39.40;;;21.02;;
84144;SDS011;74264;48.988;12.040;2024-01-30T05:57:47;42.72;;;20.67;;
84144;SDS011;74264;48.988;12.040;2024-01-30T06:00:12;46.00;;;20.77;;
84144;SDS011;74264;48.988;12.040;2024-01-30T06:02:39;40.35;;;19.30;;
84144;SDS011;74264;48.988;12.040;2024-01-30T06:05:05;49.30;;;20.17;;
84144;SDS011;74264;48.988;12.040;2024-01-30T06:07:31;45.65;;;22.38;;
84144;SDS011;74264;48.988;12.040;2024-01-30T06:09:56;77.07;;;23.77;;
84144;SDS011;74264;48.988;12.040;2024-01-30T06:12:22;68.22;;;26.73;;
84144;SDS011;74264;48.988;12.040;2024-01-30T06:14:48;124.65;;;32.72;;
84144;SDS011;74264;48.988;12.040;2024-01-30T06:17:13;218.40;;;45.42;;
84144;SDS011;74264;48.988;12.040;2024-01-30T06:19:39;757.63;;;85.68;;
84144;SDS011;74264;48.988;12.040;2024-01-30T06:22:05;113.93;;;34.97;;
84144;SDS011;74264;48.988;12.040;2024-01-30T06:24:30;1209.38;;;119.85;;
84144;SDS011;74264;48.988;12.040;2024-01-30T06:26:56;528.00;;;65.47;;
84144;SDS011;74264;48.988;12.040;2024-01-30T06:29:22;658.38;;;73.53;;
84144;SDS011;74264;48.988;12.040;2024-01-30T06:31:50;439.10;;;62.15;;
84144;SDS011;74264;48.988;12.040;2024-01-30T06:34:16;303.75;;;46.20;;
84144;SDS011;74264;48.988;12.040;2024-01-30T06:36:41;205.95;;;42.60;;
84144;SDS011;74264;48.988;12.040;2024-01-30T06:39:07;299.42;;;45.15;;
84144;SDS011;74264;48.988;12.040;2024-01-30T06:41:33;88.03;;;30.90;;
84144;SDS011;74264;48.988;12.040;2024-01-30T06:43:59;182.73;;;36.15;;
84144;SDS011;74264;48.988;12.040;2024-01-30T06:46:24;321.45;;;42.75;;
84144;SDS011;74264;48.988;12.040;2024-01-30T06:48:50;300.08;;;44.70;;
84144;SDS011;74264;48.988;12.040;2024-01-30T06:51:16;479.98;;;61.58;;
84144;SDS011;74264;48.988;12.040;2024-01-30T06:53:41;417.70;;;54.80;;
84144;SDS011;74264;48.988;12.040;2024-01-30T06:56:07;123.28;;;41.10;;
84144;SDS011;74264;48.988;12.040;2024-01-30T06:58:34;88.57;;;36.90;;
84144;SDS011;74264;48.988;12.040;2024-01-30T07:00:59;77.65;;;33.58;;
84144;SDS011;74264;48.988;12.040;2024-01-30T07:03:25;77.85;;;32.00;;
84144;SDS011;74264;48.988;12.040;2024-01-30T07:05:51;57.72;;;27.00;;
84144;SDS011;74264;48.988;12.040;2024-01-30T07:08:16;52.25;;;26.13;;
84144;SDS011;74264;48.988;12.040;2024-01-30T07:10:43;46.05;;;23.77;;
84144;SDS011;74264;48.988;12.040;2024-01-30T07:13:10;50.42;;;23.50;;
84144;SDS011;74264;48.988;12.040;2024-01-30T07:15:41;39.28;;;21.65;;
84144;SDS011;74264;48.988;12.040;2024-01-30T07:18:07;50.35;;;23.42;;
84144;SDS011;74264;48.988;12.040;2024-01-30T07:20:35;44.30;;;23.73;;
84144;SDS011;74264;48.988;12.040;2024-01-30T07:23:01;45.70;;;22.52;;
84144;SDS011;74264;48.988;12.040;2024-01-30T07:25:27;42.20;;;22.27;;
84144;SDS011;74264;48.988;12.040;2024-01-30T07:27:55;64.35;;;27.90;;
84144;SDS011;74264;48.988;12.040;2024-01-30T07:30:21;63.72;;;27.98;;
84144;SDS011;74264;48.988;12.040;2024-01-30T07:32:48;74.72;;;31.67;;
84144;SDS011;74264;48.988;12.040;2024-01-30T07:35:14;69.35;;;31.50;;
84144;SDS011;74264;48.988;12.040;2024-01-30T07:37:40;68.07;;;29.90;;
84144;SDS011;74264;48.988;12.040;2024-01-30T07:40:06;74.22;;;32.05;;
84144;SDS011;74264;48.988;12.040;2024-01-30T07:42:32;65.53;;;31.17;;
84144;SDS011;74264;48.988;12.040;2024-01-30T07:44:59;57.33;;;28.92;;
84144;SDS011;74264;48.988;12.040;2024-01-30T07:47:25;75.47;;;31.50;;
84144;SDS011;74264;48.988;12.040;2024-01-30T07:49:51;352.58;;;56.42;;
84144;SDS011;74264;48.988;12.040;2024-01-30T07:52:17;84.30;;;35.88;;
84144;SDS011;74264;48.988;12.040;2024-01-30T07:54:42;83.10;;;36.70;;
84144;SDS011;74264;48.988;12.040;2024-01-30T07:57:08;106.57;;;44.67;;
84144;SDS011;74264;48.988;12.040;2024-01-30T07:59:33;78.45;;;37.97;;
84144;SDS011;74264;48.988;12.040;2024-01-30T08:01:59;75.88;;;36.17;;
84144;SDS011;74264;48.988;12.040;2024-01-30T08:04:25;73.28;;;35.35;;
84144;SDS011;74264;48.988;12.040;2024-01-30T08:06:51;69.53;;;34.25;;
84144;SDS011;74264;48.988;12.040;2024-01-30T08:09:16;80.43;;;36.25;;
84144;SDS011;74264;48.988;12.040;2024-01-30T08:11:42;77.85;;;34.72;;
84144;SDS011;74264;48.988;12.040;2024-01-30T08:14:07;65.90;;;32.35;;
84144;SDS011;74264;48.988;12.040;2024-01-30T08:16:33;69.55;;;32.92;;
84144;SDS011;74264;48.988;12.040;2024-01-30T08:18:59;67.13;;;31.00;;
84144;SDS011;74264;48.988;12.040;2024-01-30T08:21:24;70.13;;;32.38;;
84144;SDS011;74264;48.988;12.040;2024-01-30T08:23:50;82.70;;;35.67;;
84144;SDS011;74264;48.988;12.040;2024-01-30T08:26:15;85.28;;;36.15;;
84144;SDS011;74264;48.988;12.040;2024-01-30T08:28:41;107.45;;;40.80;;
84144;SDS011;74264;48.988;12.040;2024-01-30T08:31:07;74.20;;;33.97;;
84144;SDS011;74264;48.988;12.040;2024-01-30T08:33:32;86.63;;;37.55;;
84144;SDS011;74264;48.988;12.040;2024-01-30T08:35:58;84.30;;;36.28;;
84144;SDS011;74264;48.988;12.040;2024-01-30T08:38:24;72.18;;;33.38;;
84144;SDS011;74264;48.988;12.040;2024-01-30T08:40:49;69.88;;;31.80;;
84144;SDS011;74264;48.988;12.040;2024-01-30T08:43:15;68.55;;;32.03;;
84144;SDS011;74264;48.988;12.040;2024-01-30T08:45:40;59.10;;;31.48;;
84144;SDS011;74264;48.988;12.040;2024-01-30T08:48:07;56.03;;;29.52;;
84144;SDS011;74264;48.988;12.040;2024-01-30T08:50:35;55.75;;;29.98;;
84144;SDS011;74264;48.988;12.040;2024-01-30T08:53:00;60.97;;;30.88;;
84144;SDS011;74264;48.988;12.040;2024-01-30T08:55:26;63.30;;;31.90;;
84144;SDS011;74264;48.988;12.040;2024-01-30T08:57:51;50.10;;;29.08;;
84144;SDS011;74264;48.988;12.040;2024-01-30T09:00:18;47.15;;;28.70;;
84144;SDS011;74264;48.988;12.040;2024-01-30T09:02:44;53.38;;;30.23;;
84144;SDS011;74264;48.988;12.040;2024-01-30T09:05:09;56.10;;;30.92;;
84144;SDS011;74264;48.988;12.040;2024-01-30T09:07:35;56.33;;;30.33;;
84144;SDS011;74264;48.988;12.040;2024-01-30T09:10:01;52.72;;;28.95;;
84144;SDS011;74264;48.988;12.040;2024-01-30T09:12:26;57.47;;;29.92;;
84144;SDS011;74264;48.988;12.040;2024-01-30T09:14:52;55.33;;;29.02;;
84144;SDS011;74264;48.988;12.040;2024-01-30T09:17:18;47.40;;;26.88;;
84144;SDS011;74264;48.988;12.040;2024-01-30T09:19:45;50.05;;;25.15;;
84144;SDS011;74264;48.988;12.040;2024-01-30T09:22:11;46.40;;;23.98;;
84144;SDS011;74264;48.988;12.040;2024-01-30T09:24:36;43.28;;;25.38;;
84144;SDS011;74264;48.988;12.040;2024-01-30T09:27:02;40.53;;;24.33;;
84144;SDS011;74264;48.988;12.040;2024-01-30T09:29:28;45.40;;;25.73;;
84144;SDS011;74264;48.988;12.040;2024-01-30T09:31:53;39.30;;;24.58;;
84144;SDS011;74264;48.988;12.040;2024-01-30T09:34:19;49.75;;;25.75;;
84144;SDS011;74264;48.988;12.040;2024-01-30T09:36:45;57.20;;;26.20;;
84144;SDS011;74264;48.988;12.040;2024-01-30T09:39:10;41.28;;;24.55;;
84144;SDS011;74264;48.988;12.040;2024-01-30T09:41:40;39.88;;;25.30;;
84144;SDS011;74264;48.988;12.040;2024-01-30T09:44:14;41.63;;;23.90;;
84144;SDS011;74264;48.988;12.040;2024-01-30T09:46:41;37.40;;;21.60;;
84144;SDS011;74264;48.988;12.040;2024-01-30T09:49:08;41.25;;;24.50;;
84144;SDS011;74264;48.988;12.040;2024-01-30T09:51:34;45.97;;;24.90;;
84144;SDS011;74264;48.988;12.040;2024-01-30T09:54:01;39.22;;;23.23;;
84144;SDS011;74264;48.988;12.040;2024-01-30T09:56:28;42.42;;;23.95;;
84144;SDS011;74264;48.988;12.040;2024-01-30T09:58:54;43.40;;;23.35;;
84144;SDS011;74264;48.988;12.040;2024-01-30T10:01:20;42.17;;;23.52;;
84144;SDS011;74264;48.988;12.040;2024-01-30T10:03:46;42.80;;;24.33;;
84144;SDS011;74264;48.988;12.040;2024-01-30T10:06:11;39.95;;;24.33;;
84144;SDS011;74264;48.988;12.040;2024-01-30T10:08:37;37.67;;;23.20;;
84144;SDS011;74264;48.988;12.040;2024-01-30T10:11:03;43.03;;;23.33;;
84144;SDS011;74264;48.988;12.040;2024-01-30T10:13:29;32.65;;;21.70;;
84144;SDS011;74264;48.988;12.040;2024-01-30T10:15:55;41.20;;;22.42;;
84144;SDS011;74264;48.988;12.040;2024-01-30T10:18:22;39.10;;;22.73;;
84144;SDS011;74264;48.988;12.040;2024-01-30T10:20:48;34.60;;;21.70;;
84144;SDS011;74264;48.988;12.040;2024-01-30T10:23:14;37.17;;;22.65;;
84144;SDS011;74264;48.988;12.040;2024-01-30T10:25:39;39.97;;;21.88;;
84144;SDS011;74264;48.988;12.040;2024-01-30T10:28:05;38.30;;;22.70;;
84144;SDS011;74264;48.988;12.040;2024-01-30T10:30:31;41.67;;;23.20;;
84144;SDS011;74264;48.988;12.040;2024-01-30T10:32:57;40.88;;;23.65;;
84144;SDS011;74264;48.988;12.040;2024-01-30T10:35:22;35.15;;;22.45;;
84144;SDS011;74264;48.988;12.040;2024-01-30T10:37:48;36.75;;;22.27;;
84144;SDS011;74264;48.988;12.040;2024-01-30T10:40:14;38.53;;;24.08;;
84144;SDS011;74264;48.988;12.040;2024-01-30T10:42:44;36.58;;;22.58;;
84144;SDS011;74264;48.988;12.040;2024-01-30T10:45:11;36.55;;;22.23;;
84144;SDS011;74264;48.988;12.040;2024-01-30T10:47:39;37.88;;;21.92;;
84144;SDS011;74264;48.988;12.040;2024-01-30T10:50:07;30.90;;;22.17;;
84144;SDS011;74264;48.988;12.040;2024-01-30T10:52:34;32.10;;;20.77;;
84144;SDS011;74264;48.988;12.040;2024-01-30T10:54:59;34.75;;;22.40;;
84144;SDS011;74264;48.988;12.040;2024-01-30T10:57:26;34.25;;;22.33;;
84144;SDS011;74264;48.988;12.040;2024-01-30T10:59:56;34.22;;;21.10;;
84144;SDS011;74264;48.988;12.040;2024-01-30T11:02:23;30.55;;;21.00;;
84144;SDS011;74264;48.988;12.040;2024-01-30T11:04:50;32.63;;;21.30;;
84144;SDS011;74264;48.988;12.040;2024-01-30T11:07:28;40.33;;;22.50;;
84144;SDS011;74264;48.988;12.040;2024-01-30T11:12:23;31.88;;;21.27;;
84144;SDS011;74264;48.988;12.040;2024-01-30T11:17:53;35.85;;;21.88;;
84144;SDS011;74264;48.988;12.040;2024-01-30T11:20:21;32.13;;;21.55;;
84144;SDS011;74264;48.988;12.040;2024-01-30T11:22:58;32.40;;;21.27;;
84144;SDS011;74264;48.988;12.040;2024-01-30T11:25:24;36.42;;;21.30;;
84144;SDS011;74264;48.988;12.040;2024-01-30T11:27:54;30.88;;;19.30;;
84144;SDS011;74264;48.988;12.040;2024-01-30T11:35:33;28.05;;;20.02;;
84144;SDS011;74264;48.988;12.040;2024-01-30T11:38:00;37.03;;;20.38;;
84144;SDS011;74264;48.988;12.040;2024-01-30T11:40:27;33.83;;;19.50;;
84144;SDS011;74264;48.988;12.040;2024-01-30T11:42:55;33.47;;;20.35;;
84144;SDS011;74264;48.988;12.040;2024-01-30T11:45:21;33.80;;;20.45;;
84144;SDS011;74264;48.988;12.040;2024-01-30T11:47:47;33.58;;;18.45;;
84144;SDS011;74264;48.988;12.040;2024-01-30T11:50:13;31.98;;;19.38;;
84144;SDS011;74264;48.988;12.040;2024-01-30T11:52:39;30.63;;;19.95;;
84144;SDS011;74264;48.988;12.040;2024-01-30T11:55:05;27.33;;;18.25;;
84144;SDS011;74264;48.988;12.040;2024-01-30T11:57:33;23.98;;;17.27;;
84144;SDS011;74264;48.988;12.040;2024-01-30T12:00:00;28.15;;;18.52;;
84144;SDS011;74264;48.988;12.040;2024-01-30T12:02:29;30.60;;;18.85;;
84144;SDS011;74264;48.988;12.040;2024-01-30T12:04:55;27.33;;;18.45;;
84144;SDS011;74264;48.988;12.040;2024-01-30T12:07:20;33.03;;;17.70;;
84144;SDS011;74264;48.988;12.040;2024-01-30T12:09:52;31.65;;;19.08;;
84144;SDS011;74264;48.988;12.040;2024-01-30T12:12:21;28.67;;;18.95;;
84144;SDS011;74264;48.988;12.040;2024-01-30T12:14:49;29.08;;;17.70;;
84144;SDS011;74264;48.988;12.040;2024-01-30T12:17:31;31.08;;;17.92;;
84144;SDS011;74264;48.988;12.040;2024-01-30T12:22:42;26.75;;;18.20;;
84144;SDS011;74264;48.988;12.040;2024-01-30T12:25:09;29.55;;;18.77;;
84144;SDS011;74264;48.988;12.040;2024-01-30T12:27:36;31.90;;;17.98;;
84144;SDS011;74264;48.988;12.040;2024-01-30T12:30:08;26.75;;;17.13;;
84144;SDS011;74264;48.988;12.040;2024-01-30T12:32:36;33.60;;;17.75;;
84144;SDS011;74264;48.988;12.040;2024-01-30T12:35:02;28.88;;;17.05;;
84144;SDS011;74264;48.988;12.040;2024-01-30T12:37:29;27.73;;;17.25;;
84144;SDS011;74264;48.988;12.040;2024-01-30T12:39:55;29.67;;;18.42;;
84144;SDS011;74264;48.988;12.040;2024-01-30T12:42:21;30.95;;;17.85;;
84144;SDS011;74264;48.988;12.040;2024-01-30T12:44:48;27.35;;;17.17;;
84144;SDS011;74264;48.988;12.040;2024-01-30T12:47:14;24.90;;;17.10;;
84144;SDS011;74264;48.988;12.040;2024-01-30T12:49:43;28.67;;;16.27;;
84144;SDS011;74264;48.988;12.040;2024-01-30T12:52:10;23.38;;;15.82;;
84144;SDS011;74264;48.988;12.040;2024-01-30T12:54:37;25.13;;;15.60;;
84144;SDS011;74264;48.988;12.040;2024-01-30T12:57:03;20.90;;;15.68;;
84144;SDS011;74264;48.988;12.040;2024-01-30T12:59:30;26.92;;;15.65;;
84144;SDS011;74264;48.988;12.040;2024-01-30T13:01:55;23.77;;;15.65;;
84144;SDS011;74264;48.988;12.040;2024-01-30T13:04:22;26.83;;;15.85;;
84144;SDS011;74264;48.988;12.040;2024-01-30T13:06:48;30.80;;;16.65;;
84144;SDS011;74264;48.988;12.040;2024-01-30T13:09:14;26.13;;;15.45;;
84144;SDS011;74264;48.988;12.040;2024-01-30T13:11:39;26.77;;;16.05;;
84144;SDS011;74264;48.988;12.040;2024-01-30T13:14:05;33.03;;;17.30;;
84144;SDS011;74264;48.988;12.040;2024-01-30T13:16:31;28.58;;;16.23;;
84144;SDS011;74264;48.988;12.040;2024-01-30T13:18:56;29.85;;;16.45;;
84144;SDS011;74264;48.988;12.040;2024-01-30T13:21:22;21.95;;;16.40;;
84144;SDS011;74264;48.988;12.040;2024-01-30T13:23:47;29.08;;;17.75;;
84144;SDS011;74264;48.988;12.040;2024-01-30T13:26:13;25.33;;;16.42;;
84144;SDS011;74264;48.988;12.040;2024-01-30T13:28:39;27.65;;;17.13;;
84144;SDS011;74264;48.988;12.040;2024-01-30T13:31:04;22.98;;;16.10;;
84144;SDS011;74264;48.988;12.040;2024-01-30T13:33:31;27.15;;;17.63;;
84144;SDS011;74264;48.988;12.040;2024-01-30T13:35:57;25.45;;;16.90;;
84144;SDS011;74264;48.988;12.040;2024-01-30T13:38:24;24.92;;;17.25;;
84144;SDS011;74264;48.988;12.040;2024-01-30T13:40:49;23.67;;;17.35;;
84144;SDS011;74264;48.988;12.040;2024-01-30T13:43:15;26.58;;;17.65;;
84144;SDS011;74264;48.988;12.040;2024-01-30T13:45:41;26.50;;;17.27;;
84144;SDS011;74264;48.988;12.040;2024-01-30T13:48:07;24.65;;;16.55;;
84144;SDS011;74264;48.988;12.040;2024-01-30T13:50:33;29.80;;;18.05;;
84144;SDS011;74264;48.988;12.040;2024-01-30T13:52:58;25.60;;;16.90;;
84144;SDS011;74264;48.988;12.040;2024-01-30T13:55:24;28.42;;;18.33;;
84144;SDS011;74264;48.988;12.040;2024-01-30T13:57:50;29.45;;;19.42;;
84144;SDS011;74264;48.988;12.040;2024-01-30T14:00:16;28.83;;;18.83;;
84144;SDS011;74264;48.988;12.040;2024-01-30T14:02:42;36.10;;;18.90;;
84144;SDS011;74264;48.988;12.040;2024-01-30T14:05:08;27.30;;;18.30;;
84144;SDS011;74264;48.988;12.040;2024-01-30T14:07:35;27.60;;;19.40;;
84144;SDS011;74264;48.988;12.040;2024-01-30T14:10:01;33.55;;;19.60;;
84144;SDS011;74264;48.988;12.040;2024-01-30T14:12:27;29.05;;;20.38;;
84144;SDS011;74264;48.988;12.040;2024-01-30T14:14:54;27.85;;;19.52;;
84144;SDS011;74264;48.988;12.040;2024-01-30T14:17:20;30.48;;;20.13;;